Terminal Aerodrome Forecast
Issued by NWS Sioux Falls, SD

Home | Current Version | Previous Version | Graphics & Text | Print | Product List | Glossary Off
Versions: 1 2 3 4 5 6 7 8 9 10 11 12 13 14 15 16 17 18 19

000
FTUS43 KFSD 060536 CCA
TAFFSD
TAF COR
KFSD 060536Z 0606/0706 12012KT 6SM BR OVC005
     FM061200 14014KT P6SM -SHRA SCT020 BKN040
     FM061500 16017G22KT P6SM -SHRA BKN015
     FM062200 15013G18KT P6SM SCT025 OVC035=

USA.gov is the U.S. government's official web portal to all federal, state and local government web resources and services.